Time;durP1;ratioP1;P1;durP2;ratioP2;P2;SDS_P1;SDS_P2;PMS_P1;PMS_P2;Temp;Humidity;BMP_temperature;BMP_pressure;BME280_temperature;BME280_humidity;BME280_pressure;Samples;Min_cycle;Max_cycle;Signal;HPM_P1;HPM_P2
2021/12/21 00:00:37;;;;;;;18.07;9.60;;;;;;;-2.87;86.84;102902.50;5029007;28;20210;-72
2021/12/21 00:03:02;;;;;;;17.93;9.53;;;;;;;-2.85;87.96;102901.06;5029696;28;20224;-72
2021/12/21 00:05:29;;;;;;;16.97;9.67;;;;;;;-2.83;88.18;102902.09;5030173;28;20519;-71
2021/12/21 00:07:58;;;;;;;17.03;8.77;;;;;;;-2.91;87.65;102906.31;5029760;28;20198;-71
2021/12/21 00:10:27;;;;;;;13.60;7.90;;;;;;;-2.94;87.50;102897.59;5045224;28;20476;-71
2021/12/21 00:15:48;;;;;;;13.07;8.07;;;;;;;-2.97;86.87;102908.16;5030324;28;20822;-71
2021/12/21 00:18:28;;;;;;;14.27;7.70;;;;;;;-3.02;86.54;102895.88;5017037;28;20534;-72
2021/12/21 00:21:20;;;;;;;14.83;7.30;;;;;;;-3.02;86.06;102895.88;5028665;28;20563;-72
2021/12/21 00:23:49;;;;;;;15.27;8.40;;;;;;;-2.99;86.23;102888.69;5029826;28;20503;-71
2021/12/21 00:26:20;;;;;;;12.47;7.90;;;;;;;-3.00;86.97;102889.41;5030118;28;20969;-71
2021/12/21 00:31:12;;;;;;;11.93;7.77;;;;;;;-3.03;87.41;102891.59;5030042;28;20481;-71
2021/12/21 00:33:40;;;;;;;16.60;8.37;;;;;;;-3.05;86.91;102900.56;5029561;28;20501;-72
2021/12/21 00:36:07;;;;;;;15.67;8.20;;;;;;;-3.06;86.26;102886.25;5028688;28;20182;-72
2021/12/21 00:38:33;;;;;;;14.67;7.93;;;;;;;-3.09;86.70;102893.47;5029476;28;20476;-72
2021/12/21 00:40:59;;;;;;;15.17;9.10;;;;;;;-3.10;86.78;102891.66;5029786;28;20483;-71
2021/12/21 00:43:24;;;;;;;19.47;8.17;;;;;;;-3.06;87.21;102893.78;5030171;28;20189;-72
2021/12/21 00:45:49;;;;;;;12.73;8.33;;;;;;;-3.09;87.63;102901.00;5029612;28;20190;-72
2021/12/21 00:48:16;;;;;;;13.80;8.13;;;;;;;-3.13;86.71;102897.25;5029361;28;20237;-72
2021/12/21 00:50:41;;;;;;;16.50;7.93;;;;;;;-3.17;85.90;102897.63;5029789;28;20268;-71
2021/12/21 00:53:07;;;;;;;12.20;7.43;;;;;;;-3.20;86.19;102892.34;5029277;28;20445;-71
2021/12/21 00:55:33;;;;;;;13.03;7.70;;;;;;;-3.24;86.08;102895.22;5029662;28;20199;-71
2021/12/21 00:57:58;;;;;;;13.00;7.50;;;;;;;-3.24;85.74;102899.34;5029483;28;20214;-71
2021/12/21 01:00:24;;;;;;;13.37;7.37;;;;;;;-3.24;85.56;102896.84;5029162;28;20202;-71
2021/12/21 01:02:50;;;;;;;11.17;7.33;;;;;;;-3.27;85.26;102897.41;5029272;28;20698;-72
2021/12/21 01:05:23;;;;;;;12.47;7.47;;;;;;;-3.26;85.58;102890.78;5029321;28;20193;-72
2021/12/21 01:07:51;;;;;;;16.17;7.07;;;;;;;-3.28;85.71;102892.22;5044426;28;20449;-71
2021/12/21 01:15:49;;;;;;;14.77;8.83;;;;;;;-3.30;86.67;102887.06;5033218;28;20480;-71
2021/12/21 01:18:20;;;;;;;20.73;8.60;;;;;;;-3.31;86.68;102886.91;5033049;28;20504;-72
2021/12/21 01:23:55;;;;;;;16.67;8.37;;;;;;;-3.27;87.77;102887.38;5033220;28;20530;-71
2021/12/21 01:26:44;;;;;;;13.90;8.00;;;;;;;-3.26;87.94;102886.66;5032218;28;20480;-71
2021/12/21 01:29:24;;;;;;;14.47;8.50;;;;;;;-3.26;88.30;102883.28;5031817;28;20468;-72
2021/12/21 01:32:03;;;;;;;16.97;8.37;;;;;;;-3.28;88.13;102879.69;5033021;28;21205;-72
2021/12/21 01:34:52;;;;;;;17.03;8.43;;;;;;;-3.31;87.99;102880.25;5031545;28;20448;-72
2021/12/21 01:37:28;;;;;;;17.47;8.97;;;;;;;-3.32;87.48;102880.13;5032688;28;20500;-72
2021/12/21 01:40:08;;;;;;;18.77;9.10;;;;;;;-3.30;88.19;102881.16;5048479;28;20809;-72
2021/12/21 01:50:27;;;;;;;16.50;9.03;;;;;;;-3.38;87.90;102872.84;5032427;28;20460;-71
2021/12/21 01:52:52;;;;;;;15.80;8.63;;;;;;;-3.42;87.55;102863.22;5032887;28;20952;-71
2021/12/21 01:55:18;;;;;;;13.97;8.00;;;;;;;-3.40;87.79;102868.41;5032618;28;20194;-71
2021/12/21 01:57:43;;;;;;;14.07;8.37;;;;;;;-3.41;87.75;102862.50;5032279;28;20271;-71
2021/12/21 02:00:10;;;;;;;20.17;9.47;;;;;;;-3.41;87.73;102869.13;5032536;28;20216;-71
2021/12/21 02:02:35;;;;;;;14.13;8.43;;;;;;;-3.42;87.16;102858.22;5032542;28;20201;-71
2021/12/21 02:05:01;;;;;;;14.83;8.73;;;;;;;-3.43;87.63;102858.97;5032769;28;20441;-70
2021/12/21 02:07:27;;;;;;;19.70;9.33;;;;;;;-3.42;87.89;102858.22;5032712;28;20182;-71
2021/12/21 02:09:52;;;;;;;15.23;8.70;;;;;;;-3.41;87.14;102861.63;5032606;28;20218;-70
2021/12/21 02:12:19;;;;;;;14.40;8.63;;;;;;;-3.41;87.53;102864.13;5032400;28;20190;-71
2021/12/21 02:14:53;;;;;;;14.47;8.60;;;;;;;-3.41;87.49;102857.50;5032673;28;20214;-71
2021/12/21 02:30:42;;;;;;;17.73;8.20;;;;;;;-3.55;87.51;102845.13;5031960;28;20492;-71
2021/12/21 02:33:09;;;;;;;14.37;7.80;;;;;;;-3.55;87.30;102845.13;5031914;28;20540;-71
2021/12/21 02:35:34;;;;;;;15.00;7.93;;;;;;;-3.56;87.02;102844.97;5032285;28;20487;-71
2021/12/21 02:37:59;;;;;;;16.50;8.57;;;;;;;-3.59;86.99;102840.50;5031678;28;20839;-71
2021/12/21 02:40:25;;;;;;;12.10;7.70;;;;;;;-3.56;87.12;102847.47;5031726;28;20260;-71
2021/12/21 02:42:51;;;;;;;14.53;7.87;;;;;;;-3.58;86.84;102842.28;5031645;28;20182;-71
2021/12/21 02:45:16;;;;;;;12.07;7.90;;;;;;;-3.63;86.71;102840.03;5031952;28;20685;-71
2021/12/21 02:47:42;;;;;;;20.90;8.70;;;;;;;-3.63;86.77;102842.53;5031903;28;20187;-71
2021/12/21 02:50:08;;;;;;;15.00;7.50;;;;;;;-3.64;86.66;102841.63;5031346;28;20263;-71
2021/12/21 02:52:34;;;;;;;19.67;8.27;;;;;;;-3.63;87.01;102845.91;5031415;28;20242;-71
2021/12/21 02:55:00;;;;;;;15.60;8.73;;;;;;;-3.65;87.46;102842.38;5031253;28;20444;-71
2021/12/21 02:57:26;;;;;;;13.27;8.10;;;;;;;-3.63;87.66;102838.41;5030529;28;20245;-71
2021/12/21 02:59:51;;;;;;;12.40;8.03;;;;;;;-3.60;87.86;102837.84;5031394;28;20499;-71
2021/12/21 03:02:17;;;;;;;17.03;7.50;;;;;;;-3.66;87.61;102832.19;5013574;28;20191;-71
2021/12/21 03:04:44;;;;;;;13.07;8.10;;;;;;;-3.66;86.93;102840.59;5031704;28;20237;-71
2021/12/21 03:10:00;;;;;;;14.17;8.10;;;;;;;-3.70;86.70;102842.59;5031095;28;20488;-70
2021/12/21 03:14:52;;;;;;;11.80;8.07;;;;;;;-3.77;86.79;102840.19;5031384;28;20984;-71
2021/12/21 03:17:18;;;;;;;16.33;7.77;;;;;;;-3.78;86.34;102844.28;5030949;28;20214;-71
2021/12/21 03:19:43;;;;;;;14.93;7.17;;;;;;;-3.76;86.57;102847.84;5031013;28;20468;-71
2021/12/21 03:22:10;;;;;;;12.33;7.80;;;;;;;-3.69;86.69;102847.78;5029217;28;20536;-71
2021/12/21 03:24:36;;;;;;;11.37;7.63;;;;;;;-3.73;86.76;102843.16;5029214;28;20237;-71
2021/12/21 03:27:03;;;;;;;13.17;8.13;;;;;;;-3.78;86.24;102841.78;5031093;28;20449;-71
2021/12/21 03:29:28;;;;;;;13.73;8.13;;;;;;;-3.83;86.30;102839.50;5030452;28;20461;-71
2021/12/21 03:31:54;;;;;;;12.53;7.13;;;;;;;-3.86;85.79;102830.06;5031004;28;20480;-70
2021/12/21 03:34:19;;;;;;;17.77;7.97;;;;;;;-3.87;85.74;102833.28;5031041;28;20291;-71
2021/12/21 03:36:45;;;;;;;11.70;7.57;;;;;;;-3.90;85.76;102832.97;5030458;28;20182;-71
2021/12/21 03:39:17;;;;;;;17.90;8.67;;;;;;;-3.90;85.89;102830.47;5030316;28;20225;-71
2021/12/21 03:41:47;;;;;;;11.60;7.43;;;;;;;-3.92;85.08;102828.53;5030322;28;20541;-71
2021/12/21 03:44:12;;;;;;;12.87;7.40;;;;;;;-3.94;85.50;102829.97;5030942;28;20453;-71
2021/12/21 03:46:46;;;;;;;16.70;7.77;;;;;;;-3.97;84.97;102823.03;5030946;28;21221;-71
2021/12/21 03:49:51;;;;;;;15.67;7.30;;;;;;;-3.98;85.31;102820.34;5045842;28;20603;-71
2021/12/21 03:52:12;;;;;;;15.47;7.40;;;;;;;-4.01;85.67;102827.53;5030363;28;20730;-71
2021/12/21 03:54:41;;;;;;;13.43;7.30;;;;;;;-4.03;85.54;102832.38;5030270;28;20476;-71
2021/12/21 03:57:06;;;;;;;11.23;7.50;;;;;;;-4.08;85.78;102828.47;5030417;28;20445;-71
2021/12/21 03:59:32;;;;;;;12.63;7.37;;;;;;;-4.05;85.36;102823.78;5030011;28;20465;-71
2021/12/21 04:01:58;;;;;;;11.60;6.33;;;;;;;-4.06;85.59;102818.63;5030320;28;20230;-70
2021/12/21 04:04:24;;;;;;;10.63;7.20;;;;;;;-4.07;85.60;102829.34;5030045;28;20356;-70
2021/12/21 04:06:49;;;;;;;10.00;6.83;;;;;;;-4.06;86.16;102828.63;5030589;28;20453;-71
2021/12/21 04:09:15;;;;;;;14.07;7.17;;;;;;;-4.05;85.82;102830.44;5029896;28;20478;-71
2021/12/21 04:11:41;;;;;;;12.93;7.37;;;;;;;-4.07;85.32;102831.84;5030495;28;20230;-71
2021/12/21 04:14:06;;;;;;;15.60;7.23;;;;;;;-4.09;85.27;102831.69;5030563;28;20625;-70
2021/12/21 04:16:32;;;;;;;12.30;7.23;;;;;;;-4.09;84.64;102840.81;5030472;28;20197;-71
2021/12/21 04:18:58;;;;;;;17.63;7.80;;;;;;;-4.12;85.13;102837.97;5028910;28;20310;-71
2021/12/21 04:21:23;;;;;;;10.63;7.00;;;;;;;-4.15;85.27;102842.66;5028953;28;20214;-70
2021/12/21 04:23:49;;;;;;;12.53;7.60;;;;;;;-4.16;85.34;102835.84;5029873;28;20616;-71
2021/12/21 04:26:15;;;;;;;13.13;7.30;;;;;;;-4.13;85.49;102831.19;5029973;28;20213;-71
2021/12/21 04:28:42;;;;;;;12.50;7.33;;;;;;;-4.14;85.56;102835.28;5029752;28;20591;-71
2021/12/21 04:31:10;;;;;;;12.63;7.93;;;;;;;-4.12;86.13;102838.88;5029827;28;20989;-71
2021/12/21 04:33:36;;;;;;;13.20;6.80;;;;;;;-4.15;86.49;102837.66;5030070;28;20457;-71
2021/12/21 04:36:02;;;;;;;15.23;7.77;;;;;;;-4.14;86.38;102835.28;5028746;28;20507;-71
2021/12/21 04:38:35;;;;;;;13.53;8.30;;;;;;;-4.15;86.51;102835.16;5029154;28;20472;-71
2021/12/21 04:41:08;;;;;;;15.27;8.17;;;;;;;-4.17;86.86;102840.00;5029752;28;20464;-71
2021/12/21 04:43:34;;;;;;;15.27;7.20;;;;;;;-4.19;86.99;102836.41;5028586;28;20448;-71
2021/12/21 04:46:00;;;;;;;12.23;7.37;;;;;;;-4.20;86.69;102836.25;5029857;28;20520;-71
2021/12/21 04:48:26;;;;;;;13.00;7.47;;;;;;;-4.22;86.72;102827.69;5028936;28;20182;-71
2021/12/21 04:50:51;;;;;;;11.97;7.00;;;;;;;-4.22;85.99;102828.59;5028135;28;20218;-70
2021/12/21 04:53:17;;;;;;;14.43;7.83;;;;;;;-4.26;86.08;102828.97;5028443;28;20182;-71
2021/12/21 04:55:42;;;;;;;13.40;6.80;;;;;;;-4.27;85.51;102832.22;5029664;28;20190;-70
2021/12/21 04:58:08;;;;;;;13.87;7.43;;;;;;;-4.28;85.85;102829.53;5028004;28;20966;-71
2021/12/21 05:00:35;;;;;;;16.47;7.73;;;;;;;-4.30;85.63;102824.38;5030226;28;20213;-70
2021/12/21 05:03:00;;;;;;;13.27;6.87;;;;;;;-4.32;85.47;102830.78;5045674;28;20556;-71
2021/12/21 05:05:26;;;;;;;11.53;7.10;;;;;;;-4.35;85.42;102827.97;5029828;28;20455;-71
2021/12/21 05:08:05;;;;;;;11.67;7.13;;;;;;;-4.35;85.65;102834.56;5029330;28;20175;-71
2021/12/21 05:10:31;;;;;;;14.63;7.23;;;;;;;-4.36;86.03;102837.81;5029547;28;20295;-71
2021/12/21 05:12:56;;;;;;;16.00;8.40;;;;;;;-4.35;85.35;102832.06;5044742;28;21000;-71
2021/12/21 05:15:21;;;;;;;13.73;7.03;;;;;;;-4.35;85.18;102830.47;5028479;28;20193;-71
2021/12/21 05:17:46;;;;;;;18.63;8.70;;;;;;;-4.32;85.62;102832.44;5029451;28;20210;-71
2021/12/21 05:20:12;;;;;;;12.57;7.33;;;;;;;-4.38;85.38;102829.25;5028874;28;20313;-71
2021/12/21 05:22:37;;;;;;;14.30;8.13;;;;;;;-4.34;86.20;102831.34;5029628;28;20266;-71
2021/12/21 05:25:03;;;;;;;26.80;10.20;;;;;;;-4.32;86.60;102834.91;5029493;28;20194;-70
2021/12/21 05:27:28;;;;;;;24.33;10.17;;;;;;;-4.32;87.05;102832.44;5028221;28;20257;-71
2021/12/21 05:29:54;;;;;;;31.83;10.80;;;;;;;-4.32;87.30;102835.78;5029265;28;20218;-71
2021/12/21 05:32:19;;;;;;;29.77;10.93;;;;;;;-4.33;87.83;102831.53;5028605;28;20261;-71
2021/12/21 05:34:44;;;;;;;35.30;12.87;;;;;;;-4.31;87.63;102841.69;5029604;28;20292;-70
2021/12/21 05:37:10;;;;;;;69.13;17.13;;;;;;;-4.29;88.78;102828.63;5028815;28;20616;-71
2021/12/21 05:39:50;;;;;;;40.83;14.93;;;;;;;-4.26;90.33;102833.09;5028586;28;20234;-71
2021/12/21 05:42:16;;;;;;;45.80;16.20;;;;;;;-4.28;90.06;102830.41;5029314;28;20175;-71
2021/12/21 05:44:41;;;;;;;38.47;14.53;;;;;;;-4.32;90.16;102834.91;5028182;28;20999;-71
2021/12/21 05:47:06;;;;;;;37.57;14.70;;;;;;;-4.34;89.62;102833.84;5030095;28;20651;-71
2021/12/21 05:49:34;;;;;;;33.43;14.67;;;;;;;-4.35;89.23;102842.06;5029257;28;20385;-71
2021/12/21 05:51:59;;;;;;;40.87;15.77;;;;;;;-4.33;89.09;102839.03;5029221;28;20191;-71
2021/12/21 05:54:24;;;;;;;45.93;16.70;;;;;;;-4.33;89.33;102843.16;5029278;28;20448;-71
2021/12/21 05:56:50;;;;;;;50.43;18.10;;;;;;;-4.37;89.58;102834.41;5029362;28;20190;-71
2021/12/21 05:59:15;;;;;;;49.77;18.00;;;;;;;-4.42;89.74;102848.00;5028049;28;20276;-71
2021/12/21 06:01:41;;;;;;;40.77;16.80;;;;;;;-4.40;89.80;102839.09;5033251;28;20274;-71
2021/12/21 06:04:06;;;;;;;40.10;16.57;;;;;;;-4.43;88.96;102846.22;5033144;28;20190;-71
2021/12/21 06:06:32;;;;;;;37.10;15.00;;;;;;;-4.44;88.62;102838.56;5032895;28;20197;-71
2021/12/21 06:09:01;;;;;;;31.70;15.57;;;;;;;-4.47;88.44;102838.25;5032539;28;20179;-72
2021/12/21 06:11:26;;;;;;;31.53;13.90;;;;;;;-4.50;88.52;102836.31;5032736;28;20520;-72
2021/12/21 06:27:21;;;;;;;29.70;12.47;;;;;;;-4.57;86.91;102840.44;5030553;28;20532;-71
2021/12/21 06:29:47;;;;;;;26.63;12.27;;;;;;;-4.55;86.68;102841.50;5030693;28;20622;-71
2021/12/21 06:32:13;;;;;;;28.93;12.93;;;;;;;-4.55;86.71;102839.88;5032233;28;20281;-70
2021/12/21 06:34:38;;;;;;;26.60;12.13;;;;;;;-4.56;86.53;102840.59;5032340;28;20191;-70
2021/12/21 06:37:04;;;;;;;25.73;12.23;;;;;;;-4.58;86.53;102834.56;5032544;28;20337;-71
2021/12/21 06:39:32;;;;;;;24.80;12.50;;;;;;;-4.60;86.24;102835.97;5030470;28;20226;-71
2021/12/21 06:41:58;;;;;;;22.23;11.03;;;;;;;-4.60;86.37;102837.63;5030775;28;20285;-71
2021/12/21 06:44:23;;;;;;;24.87;11.87;;;;;;;-4.59;86.13;102840.28;5030886;28;20445;-71
2021/12/21 06:47:06;;;;;;;22.07;11.87;;;;;;;-4.60;85.70;102840.09;5032609;28;20193;-70
2021/12/21 06:52:16;;;;;;;27.60;11.30;;;;;;;-4.70;86.48;102830.69;5032111;28;20428;-71
2021/12/21 06:54:41;;;;;;;16.90;11.60;;;;;;;-4.70;86.14;102834.81;5031868;28;21170;-70
2021/12/21 06:57:07;;;;;;;21.40;11.33;;;;;;;-4.72;85.94;102842.13;5030776;28;20197;-70
2021/12/21 06:59:32;;;;;;;25.20;11.60;;;;;;;-4.74;85.50;102840.19;5031781;28;20801;-71
2021/12/21 07:01:58;;;;;;;21.63;11.93;;;;;;;-4.76;85.26;102852.50;5032010;28;20576;-71
2021/12/21 07:04:24;;;;;;;22.03;11.50;;;;;;;-4.77;85.80;102844.84;5032143;28;20190;-71
2021/12/21 07:06:51;;;;;;;20.43;10.27;;;;;;;-4.78;85.42;102845.56;5032071;28;20282;-71
2021/12/21 07:09:32;;;;;;;22.53;11.07;;;;;;;-4.78;84.80;102845.56;5031619;28;20737;-70
2021/12/21 07:20:10;;;;;;;24.93;12.70;;;;;;;-4.82;85.39;102855.91;5036617;28;20473;-71
2021/12/21 07:22:35;;;;;;;21.43;11.33;;;;;;;-4.79;85.41;102858.78;5031410;28;20470;-71
2021/12/21 07:25:01;;;;;;;28.60;11.77;;;;;;;-4.79;85.36;102857.16;5031512;28;20644;-71
2021/12/21 07:27:26;;;;;;;21.80;11.00;;;;;;;-4.79;85.52;102856.28;5030170;28;20205;-71
2021/12/21 07:29:51;;;;;;;23.47;12.10;;;;;;;-4.82;84.83;102850.94;5031154;28;20206;-71
2021/12/21 07:32:17;;;;;;;24.87;11.80;;;;;;;-4.83;84.86;102854.16;5031052;28;20191;-71
2021/12/21 07:34:42;;;;;;;26.17;11.00;;;;;;;-4.84;85.64;102850.75;5031025;28;20285;-70
2021/12/21 07:37:09;;;;;;;20.03;10.10;;;;;;;-4.81;85.60;102856.09;5029436;28;20277;-71
2021/12/21 07:39:36;;;;;;;23.13;11.33;;;;;;;-4.82;85.43;102860.91;5029277;28;20222;-70
2021/12/21 07:42:04;;;;;;;21.40;10.97;;;;;;;-4.81;86.06;102857.69;5030914;28;20441;-71
2021/12/21 07:44:29;;;;;;;19.60;11.27;;;;;;;-4.81;85.94;102860.19;5030832;28;20494;-71
2021/12/21 07:46:54;;;;;;;25.23;11.30;;;;;;;-4.81;85.33;102862.69;5030609;28;20449;-71
2021/12/21 07:49:20;;;;;;;22.87;11.00;;;;;;;-4.81;85.07;102860.19;5029252;28;20368;-71
2021/12/21 07:51:45;;;;;;;22.67;11.57;;;;;;;-4.70;84.66;102853.19;5029291;28;20269;-71
2021/12/21 07:54:10;;;;;;;19.13;10.97;;;;;;;-4.52;84.34;102859.34;5028944;28;20670;-70
2021/12/21 07:56:36;;;;;;;23.43;11.83;;;;;;;-4.47;84.87;102864.09;5029500;28;20269;-70
2021/12/21 07:59:04;;;;;;;24.50;12.07;;;;;;;-4.40;85.17;102865.66;5028493;28;20202;-71
2021/12/21 08:01:29;;;;;;;29.40;12.27;;;;;;;-4.39;86.24;102865.84;5029477;28;20698;-71
2021/12/21 08:03:56;;;;;;;24.43;12.73;;;;;;;-4.40;85.89;102875.66;5029457;28;20433;-71
2021/12/21 08:06:21;;;;;;;26.13;11.77;;;;;;;-4.39;85.26;102875.84;5030726;28;20277;-71
2021/12/21 08:08:48;;;;;;;27.93;12.53;;;;;;;-4.36;85.32;102867.78;5030314;28;21029;-72
2021/12/21 08:11:16;;;;;;;31.40;12.87;;;;;;;-4.32;85.25;102870.78;5030771;28;20574;-73
2021/12/21 08:13:44;;;;;;;28.63;13.50;;;;;;;-4.28;85.20;102862.03;5009748;28;20484;-74
2021/12/21 08:16:10;;;;;;;34.17;15.20;;;;;;;-4.22;84.92;102865.19;5025812;28;20461;-74
2021/12/21 08:18:35;;;;;;;36.93;15.40;;;;;;;-4.19;85.67;102863.03;5024745;28;20484;-72
2021/12/21 08:21:01;;;;;;;39.60;15.03;;;;;;;-4.05;84.84;102865.44;5029924;28;20214;-73
2021/12/21 08:23:27;;;;;;;39.00;16.60;;;;;;;-3.97;84.92;102867.13;5028954;28;20191;-72
2021/12/21 08:25:54;;;;;;;31.27;14.13;;;;;;;-3.87;84.53;102865.81;5030219;28;20910;-72
2021/12/21 08:28:20;;;;;;;32.80;15.27;;;;;;;-3.79;84.64;102860.03;5012066;28;20187;-71
2021/12/21 08:30:45;;;;;;;27.43;13.40;;;;;;;-3.64;84.95;102863.28;5019963;28;20811;-71
2021/12/21 08:33:10;;;;;;;29.70;13.63;;;;;;;-3.62;84.70;102862.72;5030226;28;20201;-71
2021/12/21 08:35:36;;;;;;;31.97;14.73;;;;;;;-3.57;84.51;102856.59;5045450;28;20202;-71
2021/12/21 08:38:06;;;;;;;27.40;12.93;;;;;;;-3.57;85.11;102856.59;5028993;28;20221;-71
2021/12/21 08:40:41;;;;;;;26.77;13.00;;;;;;;-3.58;85.18;102862.31;5030303;28;20263;-71
2021/12/21 08:43:12;;;;;;;28.60;13.30;;;;;;;-3.57;85.00;102850.69;5030138;28;20436;-74
2021/12/21 08:45:39;;;;;;;22.10;12.70;;;;;;;-3.62;84.82;102851.81;5030005;28;20437;-75
2021/12/21 08:48:06;;;;;;;33.97;13.83;;;;;;;-3.65;85.23;102847.38;5045099;28;20514;-74
2021/12/21 08:50:33;;;;;;;28.30;13.73;;;;;;;-3.66;85.62;102854.72;5045300;28;20449;-74
2021/12/21 08:52:59;;;;;;;26.10;13.07;;;;;;;-3.68;85.47;102856.19;5028902;28;20514;-74
2021/12/21 08:55:24;;;;;;;28.70;14.00;;;;;;;-3.66;86.42;102858.13;5045767;28;20925;-72
2021/12/21 08:57:49;;;;;;;29.30;14.40;;;;;;;-3.64;87.57;102853.28;5029782;28;20210;-73
2021/12/21 09:00:16;;;;;;;27.30;14.63;;;;;;;-3.62;87.74;102859.31;5030584;28;20260;-74
2021/12/21 09:02:41;;;;;;;32.47;15.07;;;;;;;-3.60;88.33;102861.25;5030897;28;20162;-73
2021/12/21 09:05:12;;;;;;;34.60;15.87;;;;;;;-3.56;88.66;102863.38;5030805;28;21135;-73
2021/12/21 09:07:49;;;;;;;31.03;14.73;;;;;;;-3.37;88.12;102856.19;5031563;28;20190;-73
2021/12/21 09:10:17;;;;;;;36.03;15.57;;;;;;;-3.24;88.02;102854.25;5030237;28;20460;-75
2021/12/21 09:12:43;;;;;;;32.50;15.03;;;;;;;-3.15;87.01;102855.25;5004128;28;20477;-74
2021/12/21 09:15:10;;;;;;;29.63;15.57;;;;;;;-3.00;86.75;102854.34;5029321;28;20421;-74
2021/12/21 09:17:36;;;;;;;29.30;14.20;;;;;;;-2.78;86.41;102863.38;5029521;28;20464;-74
2021/12/21 09:20:03;;;;;;;32.63;15.77;;;;;;;-2.47;85.98;102853.28;5027870;28;20460;-75
2021/12/21 09:22:28;;;;;;;40.43;20.13;;;;;;;-2.23;85.33;102855.78;5029849;28;20198;-74
2021/12/21 09:24:56;;;;;;;39.83;18.70;;;;;;;-1.92;84.90;102843.97;5028310;28;20447;-73
2021/12/21 09:27:21;;;;;;;26.10;14.40;;;;;;;-1.60;84.36;102845.56;5029781;28;20174;-74
2021/12/21 09:29:46;;;;;;;22.17;11.83;;;;;;;-1.39;83.91;102846.78;5028894;28;20269;-74
2021/12/21 09:32:14;;;;;;;21.47;12.17;;;;;;;-1.08;83.02;102851.56;5029127;28;20228;-74
2021/12/21 09:34:40;;;;;;;17.50;10.17;;;;;;;-0.80;83.33;102846.84;5029600;28;20660;-74
2021/12/21 09:37:08;;;;;;;18.13;10.20;;;;;;;-0.61;83.99;102847.84;5032775;28;20611;-74
2021/12/21 09:39:33;;;;;;;19.77;9.60;;;;;;;-0.43;84.52;102849.59;5032925;28;20226;-74
2021/12/21 09:41:59;;;;;;;13.10;8.80;;;;;;;-0.28;84.46;102848.53;5048510;28;20276;-74
2021/12/21 09:44:24;;;;;;;16.93;9.60;;;;;;;-0.30;84.24;102855.06;5032957;28;20285;-74
2021/12/21 09:46:50;;;;;;;14.97;8.87;;;;;;;-0.14;84.03;102852.31;5032994;28;20245;-74
2021/12/21 09:49:15;;;;;;;18.10;9.60;;;;;;;0.01;83.86;102858.81;5032380;28;20185;-73
2021/12/21 09:51:41;;;;;;;20.07;9.67;;;;;;;0.01;83.47;102859.69;5032710;28;20254;-74
2021/12/21 09:54:08;;;;;;;18.07;10.40;;;;;;;0.00;83.17;102864.59;5033562;28;20189;-74
2021/12/21 09:56:34;;;;;;;18.03;11.20;;;;;;;0.07;82.69;102866.94;5032492;28;20664;-74
2021/12/21 09:59:00;;;;;;;21.93;12.13;;;;;;;0.28;82.79;102865.50;5032394;28;20220;-74
2021/12/21 10:01:26;;;;;;;19.10;12.00;;;;;;;0.33;81.66;102862.69;5032373;28;20206;-75
2021/12/21 10:03:51;;;;;;;20.80;12.13;;;;;;;0.31;82.31;102864.16;5032507;28;20182;-75
2021/12/21 10:06:16;;;;;;;19.63;12.40;;;;;;;0.24;82.68;102865.22;5033505;28;20324;-75
2021/12/21 10:08:42;;;;;;;26.70;17.27;;;;;;;0.27;82.79;102866.28;5031216;28;20214;-75
2021/12/21 10:11:18;;;;;;;22.67;12.67;;;;;;;0.06;83.83;102861.00;5030103;28;20237;-75
2021/12/21 10:13:43;;;;;;;18.17;11.37;;;;;;;-0.07;83.96;102858.09;5015987;28;20261;-75
2021/12/21 10:16:10;;;;;;;20.60;11.77;;;;;;;0.06;84.39;102861.00;5031803;28;20198;-75
2021/12/21 10:18:41;;;;;;;17.47;10.67;;;;;;;0.37;83.21;102856.28;5031325;28;20222;-74
2021/12/21 10:21:09;;;;;;;16.13;10.23;;;;;;;0.38;83.13;102847.22;5029869;28;20234;-74
2021/12/21 10:23:37;;;;;;;21.23;10.57;;;;;;;0.50;82.68;102854.16;5043957;28;21102;-74
2021/12/21 10:26:10;;;;;;;15.73;9.47;;;;;;;0.95;82.14;102853.22;5051428;28;20222;-75
2021/12/21 10:28:45;;;;;;;17.43;9.93;;;;;;;1.46;79.77;102857.88;5049893;28;20540;-73
2021/12/21 10:31:14;;;;;;;20.10;9.73;;;;;;;1.47;79.30;102852.06;5050052;28;20251;-72
2021/12/21 10:33:44;;;;;;;15.57;9.23;;;;;;;1.94;77.07;102845.31;5051336;28;20189;-74
2021/12/21 10:36:10;;;;;;;14.93;9.70;;;;;;;1.84;78.08;102845.25;5051344;28;20259;-76
2021/12/21 10:38:50;;;;;;;16.03;9.53;;;;;;;2.91;73.19;102839.22;5049810;28;20218;-74
2021/12/21 10:41:19;;;;;;;10.80;8.27;;;;;;;3.09;73.26;102841.59;5050339;28;20686;-75
2021/12/21 10:44:15;;;;;;;13.40;7.97;;;;;;;3.54;71.13;102845.28;5051366;28;20193;-75
2021/12/21 10:46:49;;;;;;;12.67;7.87;;;;;;;3.91;70.66;102841.47;5050272;28;20631;-72
2021/12/21 10:49:21;;;;;;;11.30;7.17;;;;;;;4.32;68.80;102836.25;5050927;28;20170;-74
2021/12/21 10:51:55;;;;;;;11.47;7.90;;;;;;;5.10;66.47;102832.03;5051388;28;20194;-75
2021/12/21 10:54:39;;;;;;;13.60;8.20;;;;;;;5.64;64.62;102828.38;5051199;28;20188;-75
2021/12/21 10:57:10;;;;;;;11.43;7.87;;;;;;;6.02;63.88;102813.28;5051082;28;20177;-76
2021/12/21 10:59:41;;;;;;;11.77;7.40;;;;;;;5.89;64.08;102821.72;5041902;28;20245;-74
2021/12/21 11:02:13;;;;;;;13.20;7.40;;;;;;;6.53;62.06;102807.53;5030377;28;20260;-76
2021/12/21 11:04:47;;;;;;;12.60;7.53;;;;;;;6.87;61.49;102803.88;5030625;28;20573;-75
2021/12/21 11:08:05;;;;;;;13.00;8.43;;;;;;;8.09;57.65;102799.84;5030704;28;20178;-74
2021/12/21 11:10:27;;;;;;;12.10;7.83;;;;;;;9.05;54.24;102803.06;5027319;28;20621;-75
2021/12/21 11:12:59;;;;;;;13.27;8.77;;;;;;;9.95;51.85;102791.91;5016607;28;20305;-74
2021/12/21 11:15:34;;;;;;;12.43;8.67;;;;;;;11.02;49.12;102788.09;5030559;28;20277;-73
2021/12/21 11:18:03;;;;;;;14.40;9.03;;;;;;;10.02;51.47;102787.19;5030316;28;20202;-74
2021/12/21 11:20:29;;;;;;;11.90;8.80;;;;;;;10.53;50.14;102789.91;5030379;28;20225;-73
2021/12/21 11:22:55;;;;;;;12.03;8.20;;;;;;;10.73;48.63;102790.91;5030420;28;20190;-73
2021/12/21 11:25:21;;;;;;;13.87;8.33;;;;;;;11.33;48.25;102779.38;5030426;28;20191;-71
2021/12/21 11:27:48;;;;;;;12.40;9.07;;;;;;;10.96;48.84;102775.00;5033921;28;20229;-73
2021/12/21 11:30:16;;;;;;;12.17;9.20;;;;;;;11.03;48.40;102775.34;5042511;28;20212;-74
2021/12/21 11:32:44;;;;;;;13.80;10.33;;;;;;;11.47;47.56;102775.75;5010988;28;20241;-75
2021/12/21 11:37:41;;;;;;;16.53;10.13;;;;;;;11.10;49.19;102768.84;5050567;28;20229;-73
2021/12/21 11:40:09;;;;;;;13.57;10.10;;;;;;;11.18;47.94;102765.81;5050120;28;20214;-74
2021/12/21 11:43:02;;;;;;;11.80;9.13;;;;;;;11.34;48.52;102763.16;5050436;28;20265;-73
2021/12/21 11:45:37;;;;;;;11.67;8.77;;;;;;;11.36;48.20;102756.44;5031001;28;20243;-74
2021/12/21 11:48:11;;;;;;;11.70;8.63;;;;;;;11.54;47.27;102765.00;5010689;28;20187;-74
2021/12/21 11:50:39;;;;;;;13.50;8.53;;;;;;;11.25;47.89;102765.28;5019674;28;20702;-72
2021/12/21 11:53:08;;;;;;;11.30;7.73;;;;;;;11.82;46.56;102754.31;5030271;28;20187;-72
2021/12/21 11:55:37;;;;;;;9.80;8.13;;;;;;;11.99;46.65;102737.97;5029260;28;20285;-74
2021/12/21 11:58:25;;;;;;;10.07;7.70;;;;;;;12.13;45.85;102735.19;5029858;28;20276;-74
2021/12/21 12:00:55;;;;;;;10.43;7.87;;;;;;;12.27;46.12;102740.94;5022376;28;20222;-74
2021/12/21 12:03:23;;;;;;;10.27;7.63;;;;;;;12.28;45.21;102740.13;5030918;28;20214;-74
2021/12/21 12:05:52;;;;;;;12.10;8.57;;;;;;;13.08;43.80;102733.22;5030409;28;20182;-74
2021/12/21 12:08:17;;;;;;;12.10;10.00;;;;;;;13.20;44.08;102728.53;5028813;28;20278;-75
2021/12/21 12:10:50;;;;;;;12.93;10.10;;;;;;;12.99;43.97;102732.84;5029971;28;20289;-74
2021/12/21 12:13:29;;;;;;;12.67;9.90;;;;;;;13.01;44.06;102726.94;5030491;28;20261;-72
2021/12/21 12:16:10;;;;;;;12.83;9.80;;;;;;;12.58;44.55;102723.44;5045503;28;20182;-74
2021/12/21 12:18:40;;;;;;;12.23;9.83;;;;;;;12.61;44.84;102727.00;5029829;28;20214;-75
2021/12/21 12:21:17;;;;;;;11.30;10.13;;;;;;;12.68;45.04;102721.28;5028506;28;20217;-75
2021/12/21 12:24:00;;;;;;;11.10;10.07;;;;;;;12.62;44.45;102721.03;5045437;28;20655;-75
2021/12/21 12:26:33;;;;;;;11.13;8.70;;;;;;;13.05;43.48;102715.06;5029967;28;20194;-74